Parchman, Mississippi
Current Conditions -  °F | °C
As of 8:15 PM on Thursday 20 Nov 2014 (Local Time) from KRNV Reporting Station
Haze Haze  
Wind Chill: 49°   Ceiling: 6000
Heat Index: 49°   Visibility: 5mi
Dew Point: 47°   Wind: 3mph
Humidity: 96%   Direction: 100°E
Pressure: 30.19"   Gusts: NA
Location:  33.92°N, 90.5°W
Report Text: KRNV 210215Z AUTO 10003KT 5SM BR BKN060 BKN070 09/09 A3019 RMK AO2 T00920086
Loading
Personal Weather Stations






























Interactive Weather Map New forecast layout! Learn more

10-Day Weather Forecast

Advertisements
Track Severe Weather on mobile